createdAt,value
2018-05-31T00:01:02.905Z,20.21
2018-05-31T00:02:12.869Z,20.2
2018-05-31T00:03:21.733Z,20.21
2018-05-31T00:04:30.949Z,20.18
2018-05-31T00:05:39.819Z,20.18
2018-05-31T00:06:48.979Z,20.08
2018-05-31T00:07:57.844Z,20.14
2018-05-31T00:09:06.713Z,20.06
2018-05-31T00:10:15.627Z,20.02
2018-05-31T00:11:24.489Z,20.13
2018-05-31T00:12:33.353Z,20.05
2018-05-31T00:13:42.217Z,20.11
2018-05-31T00:14:51.080Z,20.1
2018-05-31T00:16:00.096Z,20.08
2018-05-31T00:17:08.959Z,20.05
2018-05-31T00:18:17.831Z,20.05
2018-05-31T00:19:26.986Z,20.08
2018-05-31T00:20:35.847Z,20.05
2018-05-31T00:21:44.963Z,20.02
2018-05-31T00:22:53.824Z,19.98
2018-05-31T00:24:02.687Z,20.1
2018-05-31T00:25:11.874Z,20.1
2018-05-31T00:26:21.069Z,19.96
2018-05-31T00:27:30.365Z,19.95
2018-05-31T00:28:39.228Z,20.03
2018-05-31T00:29:48.386Z,19.99
2018-05-31T00:30:57.252Z,19.94
2018-05-31T00:32:06.119Z,19.94
2018-05-31T00:33:15.036Z,19.88
2018-05-31T00:34:24.191Z,19.94
2018-05-31T00:35:33.056Z,19.87
2018-05-31T00:36:41.919Z,19.98
2018-05-31T00:37:50.801Z,19.83
2018-05-31T00:39:00.059Z,19.8
2018-05-31T00:40:08.923Z,19.77
2018-05-31T00:41:17.789Z,19.77
2018-05-31T00:42:26.651Z,19.77
2018-05-31T00:43:35.517Z,19.77
2018-05-31T00:44:44.383Z,19.8
2018-05-31T00:45:53.248Z,19.86
2018-05-31T00:47:02.110Z,19.83
2018-05-31T00:48:10.984Z,19.87
2018-05-31T00:49:21.105Z,19.8
2018-05-31T00:50:30.065Z,19.87
2018-05-31T00:51:39.494Z,19.83
2018-05-31T00:52:48.358Z,19.81
2018-05-31T00:53:57.520Z,19.81
2018-05-31T00:55:06.683Z,19.76
2018-05-31T00:56:15.595Z,19.78
2018-05-31T00:57:24.740Z,19.73
2018-05-31T00:58:33.604Z,19.8
2018-05-31T00:59:42.467Z,19.8
2018-05-31T01:00:51.329Z,19.73
2018-05-31T01:02:00.578Z,19.71
2018-05-31T01:03:09.440Z,19.73
2018-05-31T01:04:18.301Z,19.71
2018-05-31T01:05:27.170Z,19.71
2018-05-31T01:06:36.034Z,19.73
2018-05-31T01:07:45.244Z,19.73
2018-05-31T01:08:54.108Z,19.69
2018-05-31T01:10:02.972Z,19.69
2018-05-31T01:11:11.835Z,19.56
2018-05-31T01:12:20.698Z,19.69
2018-05-31T01:13:29.572Z,19.69
2018-05-31T01:14:38.751Z,19.68
2018-05-31T01:15:47.907Z,19.69
2018-05-31T01:16:56.770Z,19.73
2018-05-31T01:18:05.683Z,19.63
2018-05-31T01:19:14.597Z,19.59
2018-05-31T01:20:23.463Z,19.56
2018-05-31T01:21:32.328Z,19.62
2018-05-31T01:22:41.193Z,19.61
2018-05-31T01:23:50.631Z,19.61
2018-05-31T01:24:59.544Z,19.54
2018-05-31T01:26:08.412Z,19.5
2018-05-31T01:27:17.277Z,19.5
2018-05-31T01:28:26.137Z,19.54
2018-05-31T01:29:35.002Z,19.58
2018-05-31T01:30:44.460Z,19.43
2018-05-31T01:31:53.328Z,19.39
2018-05-31T01:33:03.014Z,19.37
2018-05-31T01:34:11.885Z,19.37
2018-05-31T01:35:21.038Z,19.41
2018-05-31T01:36:29.904Z,19.39
2018-05-31T01:37:38.769Z,19.29
2018-05-31T01:38:47.635Z,19.36
2018-05-31T01:39:56.812Z,19.32
2018-05-31T01:41:05.680Z,19.29
2018-05-31T01:42:14.643Z,19.19
2018-05-31T01:43:23.507Z,19.21
2018-05-31T01:44:32.372Z,19.16
2018-05-31T01:45:41.513Z,19.14
2018-05-31T01:46:50.967Z,19.18
2018-05-31T01:48:00.181Z,19.13
2018-05-31T01:49:09.045Z,19.16
2018-05-31T01:50:18.196Z,19.07
2018-05-31T01:51:27.348Z,19.08
2018-05-31T01:52:36.209Z,19.1
2018-05-31T01:53:46.101Z,19.1
2018-05-31T01:54:55.243Z,19.06
2018-05-31T01:56:04.109Z,19.04
2018-05-31T01:57:12.972Z,19.07
2018-05-31T01:58:21.836Z,19.13
2018-05-31T01:59:30.700Z,19.06
2018-05-31T02:00:39.566Z,19.06
2018-05-31T02:01:48.430Z,19.06
2018-05-31T02:02:57.292Z,19.08
2018-05-31T02:04:06.156Z,18.95
2018-05-31T02:05:15.070Z,19.06
2018-05-31T02:06:23.931Z,18.98
2018-05-31T02:07:32.796Z,18.95
2018-05-31T02:08:41.946Z,18.99
2018-05-31T02:09:50.809Z,18.94
2018-05-31T02:10:59.723Z,18.98
2018-05-31T02:12:08.586Z,18.94
2018-05-31T02:13:17.451Z,18.94
2018-05-31T02:14:26.603Z,19
2018-05-31T02:15:35.463Z,18.94
2018-05-31T02:16:44.477Z,18.98
2018-05-31T02:17:53.393Z,18.94
2018-05-31T02:19:02.259Z,19
2018-05-31T02:20:11.119Z,19.08
2018-05-31T02:21:19.983Z,19.02
2018-05-31T02:22:29.969Z,19.1
2018-05-31T02:23:38.830Z,19.11
2018-05-31T02:24:47.695Z,19.1
2018-05-31T02:25:56.555Z,19.1
2018-05-31T02:27:05.416Z,19.02
2018-05-31T02:28:14.279Z,18.95
2018-05-31T02:29:23.143Z,18.99
2018-05-31T02:30:32.299Z,19
2018-05-31T02:31:41.171Z,19.04
2018-05-31T02:32:50.041Z,19.02
2018-05-31T02:33:59.257Z,18.98
2018-05-31T02:35:08.403Z,18.95
2018-05-31T02:36:17.266Z,18.95
2018-05-31T02:37:26.412Z,19.02
2018-05-31T02:38:35.273Z,18.99
2018-05-31T02:39:44.239Z,18.98
2018-05-31T02:40:53.099Z,18.9
2018-05-31T02:42:01.962Z,18.91
2018-05-31T02:43:10.831Z,18.94
2018-05-31T02:44:19.693Z,18.95
2018-05-31T02:45:28.606Z,18.92
2018-05-31T02:46:37.469Z,18.94
2018-05-31T02:47:46.627Z,18.98
2018-05-31T02:48:55.490Z,18.98
2018-05-31T02:50:04.638Z,18.98
2018-05-31T02:51:13.852Z,18.98
2018-05-31T02:52:22.716Z,18.92
2018-05-31T02:53:31.577Z,18.98
2018-05-31T02:54:40.441Z,19.04
2018-05-31T02:55:49.304Z,18.95
2018-05-31T02:56:58.470Z,18.94
2018-05-31T02:58:07.331Z,18.95
2018-05-31T02:59:16.196Z,18.95
2018-05-31T03:00:25.060Z,18.95
2018-05-31T03:01:33.922Z,18.92
2018-05-31T03:02:42.884Z,18.81
2018-05-31T03:03:52.046Z,18.88
2018-05-31T03:05:00.910Z,18.82
2018-05-31T03:06:09.773Z,18.82
2018-05-31T03:07:18.935Z,18.82
2018-05-31T03:08:27.797Z,18.78
2018-05-31T03:09:36.667Z,18.76
2018-05-31T03:10:45.531Z,18.75
2018-05-31T03:11:54.398Z,18.72
2018-05-31T03:13:03.260Z,18.7
2018-05-31T03:14:12.273Z,18.65
2018-05-31T03:15:21.138Z,18.65
2018-05-31T03:16:30.004Z,18.62
2018-05-31T03:17:38.870Z,18.57
2018-05-31T03:18:47.731Z,18.6
2018-05-31T03:19:56.747Z,18.58
2018-05-31T03:21:05.900Z,18.54
2018-05-31T03:22:14.762Z,18.57
2018-05-31T03:23:24.502Z,18.57
2018-05-31T03:24:33.368Z,18.57
2018-05-31T03:25:42.279Z,18.54
2018-05-31T03:26:51.142Z,18.55
2018-05-31T03:28:00.007Z,18.51
2018-05-31T03:29:08.873Z,18.48
2018-05-31T03:30:18.016Z,18.5
2018-05-31T03:31:27.929Z,18.52
2018-05-31T03:32:37.362Z,18.52
2018-05-31T03:33:46.511Z,18.52
2018-05-31T03:34:55.373Z,18.52
2018-05-31T03:36:04.541Z,18.41
2018-05-31T03:37:13.406Z,18.48
2018-05-31T03:38:22.268Z,18.52
2018-05-31T03:39:31.419Z,18.44
2018-05-31T03:40:40.283Z,18.42
2018-05-31T03:41:49.147Z,18.41
2018-05-31T03:42:58.013Z,18.41
2018-05-31T03:44:07.170Z,18.39
2018-05-31T03:45:16.034Z,18.37
2018-05-31T03:46:25.498Z,18.33
2018-05-31T03:47:34.364Z,18.39
2018-05-31T03:48:43.527Z,18.35
2018-05-31T03:49:52.389Z,18.36
2018-05-31T03:51:01.250Z,18.37
2018-05-31T03:52:10.156Z,18.36
2018-05-31T03:53:18.977Z,18.42
2018-05-31T03:54:27.989Z,18.45
2018-05-31T03:55:37.718Z,18.45
2018-05-31T03:56:46.580Z,18.41
2018-05-31T03:57:55.733Z,18.42
2018-05-31T03:59:04.595Z,18.39
2018-05-31T04:00:13.509Z,18.42
2018-05-31T04:01:22.946Z,18.47
2018-05-31T04:02:31.809Z,18.52
2018-05-31T04:03:40.672Z,18.48
2018-05-31T04:04:50.259Z,18.47
2018-05-31T04:05:59.473Z,18.55
2018-05-31T04:07:08.335Z,18.47
2018-05-31T04:08:17.198Z,18.55
2018-05-31T04:09:26.063Z,18.6
2018-05-31T04:10:35.506Z,18.55
2018-05-31T04:11:45.093Z,18.54
2018-05-31T04:12:53.956Z,18.57
2018-05-31T04:14:03.119Z,18.62
2018-05-31T04:15:11.985Z,18.62
2018-05-31T04:16:20.850Z,18.6
2018-05-31T04:17:29.763Z,18.58
2018-05-31T04:18:38.628Z,18.63
2018-05-31T04:19:47.494Z,18.69
2018-05-31T04:20:56.361Z,18.73
2018-05-31T04:22:05.226Z,18.62
2018-05-31T04:23:14.089Z,18.67
2018-05-31T04:24:22.952Z,18.7
2018-05-31T04:25:31.814Z,18.72
2018-05-31T04:26:40.674Z,18.65
2018-05-31T04:27:49.538Z,18.65
2018-05-31T04:28:58.751Z,18.67
2018-05-31T04:30:07.614Z,18.75
2018-05-31T04:31:16.480Z,18.82
2018-05-31T04:32:25.341Z,18.78
2018-05-31T04:33:34.217Z,18.81
2018-05-31T04:34:43.218Z,18.9
2018-05-31T04:35:52.082Z,18.87
2018-05-31T04:37:00.955Z,18.88
2018-05-31T04:38:09.830Z,18.87
2018-05-31T04:39:18.693Z,18.85
2018-05-31T04:40:27.707Z,18.98
2018-05-31T04:41:36.863Z,18.99
2018-05-31T04:42:45.725Z,18.95
2018-05-31T04:43:54.590Z,18.94
2018-05-31T04:45:03.458Z,18.94
2018-05-31T04:46:12.670Z,18.9
2018-05-31T04:47:21.532Z,18.94
2018-05-31T04:48:30.399Z,18.95
2018-05-31T04:49:39.269Z,18.92
2018-05-31T04:50:48.419Z,18.95
2018-05-31T04:51:57.291Z,19.07
2018-05-31T04:53:06.146Z,19.04
2018-05-31T04:54:15.012Z,19.07
2018-05-31T04:55:23.881Z,19.11
2018-05-31T04:56:32.790Z,19.02
2018-05-31T04:57:41.661Z,19.08
2018-05-31T04:58:50.521Z,19.11
2018-05-31T04:59:59.385Z,19.08
2018-05-31T05:01:08.252Z,19.11
2018-05-31T05:02:17.465Z,19.1
2018-05-31T05:03:26.333Z,19.1
2018-05-31T05:04:35.493Z,19.08
2018-05-31T05:05:44.654Z,19.08
2018-05-31T05:06:53.567Z,19.19
2018-05-31T05:08:02.723Z,19.14
2018-05-31T05:09:11.591Z,19.16
2018-05-31T05:10:20.460Z,19.19
2018-05-31T05:11:29.323Z,19.16
2018-05-31T05:12:38.186Z,19.25
2018-05-31T05:13:47.583Z,19.29
2018-05-31T05:14:56.746Z,19.29
2018-05-31T05:16:05.903Z,19.28
2018-05-31T05:17:14.765Z,19.22
2018-05-31T05:18:23.917Z,19.31
2018-05-31T05:19:32.882Z,19.22
2018-05-31T05:20:42.031Z,19.32
2018-05-31T05:21:50.896Z,19.28
2018-05-31T05:22:59.756Z,19.37
2018-05-31T05:24:08.620Z,19.32
2018-05-31T05:25:17.636Z,19.41
2018-05-31T05:26:26.506Z,19.33
2018-05-31T05:27:35.361Z,19.4
2018-05-31T05:28:44.227Z,19.43
2018-05-31T05:29:53.093Z,19.41
2018-05-31T05:31:02.406Z,19.43
2018-05-31T05:32:11.276Z,19.41
2018-05-31T05:33:20.438Z,19.51
2018-05-31T05:34:29.300Z,19.47
2018-05-31T05:35:38.165Z,19.5
2018-05-31T05:36:47.081Z,19.58
2018-05-31T05:37:55.948Z,19.66
2018-05-31T05:39:04.814Z,19.63
2018-05-31T05:40:13.678Z,19.61
2018-05-31T05:41:22.543Z,19.59
2018-05-31T05:42:32.150Z,19.69
2018-05-31T05:43:41.015Z,19.73
2018-05-31T05:44:49.878Z,19.78
2018-05-31T05:45:58.742Z,19.78
2018-05-31T05:47:07.607Z,19.73
2018-05-31T05:48:16.475Z,19.83
2018-05-31T05:49:25.335Z,19.92
2018-05-31T05:50:35.160Z,19.88
2018-05-31T05:51:44.023Z,19.88
2018-05-31T05:52:52.886Z,19.95
2018-05-31T05:54:01.899Z,19.94
2018-05-31T05:55:10.765Z,20.1
2018-05-31T05:56:19.676Z,20.1
2018-05-31T05:57:28.854Z,20.06
2018-05-31T05:58:37.719Z,20.1
2018-05-31T05:59:46.580Z,20.1
2018-05-31T06:00:55.444Z,20.13
2018-05-31T06:02:04.309Z,20.16
2018-05-31T06:03:13.459Z,20.16
2018-05-31T06:04:22.322Z,20.21
2018-05-31T06:05:31.287Z,20.23
2018-05-31T06:06:40.152Z,20.17
2018-05-31T06:07:49.017Z,20.26
2018-05-31T06:08:57.883Z,20.32
2018-05-31T06:10:06.934Z,20.31
2018-05-31T06:11:16.209Z,20.28
2018-05-31T06:12:25.358Z,20.36
2018-05-31T06:13:34.221Z,20.33
2018-05-31T06:14:43.086Z,20.42
2018-05-31T06:15:51.951Z,20.36
2018-05-31T06:17:01.154Z,20.41
2018-05-31T06:18:10.020Z,20.38
2018-05-31T06:19:19.175Z,20.47
2018-05-31T06:20:28.038Z,20.51
2018-05-31T06:21:36.905Z,20.52
2018-05-31T06:22:45.768Z,20.59
2018-05-31T06:23:54.637Z,20.58
2018-05-31T06:25:03.505Z,20.54
2018-05-31T06:26:12.693Z,20.57
2018-05-31T06:27:21.907Z,20.72
2018-05-31T06:28:31.156Z,20.76
2018-05-31T06:29:40.021Z,20.77
2018-05-31T06:30:48.886Z,20.82
2018-05-31T06:31:57.752Z,20.74
2018-05-31T06:33:06.624Z,20.88
2018-05-31T06:34:15.888Z,20.88
2018-05-31T06:35:24.738Z,20.88
2018-05-31T06:36:33.882Z,20.98
2018-05-31T06:37:43.024Z,20.92
2018-05-31T06:38:51.887Z,20.95
2018-05-31T06:40:00.909Z,21.04
2018-05-31T06:41:09.764Z,21.06
2018-05-31T06:42:18.638Z,21.1
2018-05-31T06:43:28.071Z,21.1
2018-05-31T06:44:36.933Z,21.1
2018-05-31T06:45:46.516Z,21.27
2018-05-31T06:46:55.373Z,21.32
2018-05-31T06:48:04.515Z,21.42
2018-05-31T06:49:13.941Z,21.42
2018-05-31T06:50:22.807Z,21.38
2018-05-31T06:51:31.773Z,21.5
2018-05-31T06:52:40.919Z,21.46
2018-05-31T06:53:49.789Z,21.47
2018-05-31T06:54:58.652Z,21.54
2018-05-31T06:56:07.803Z,21.64
2018-05-31T06:57:16.719Z,21.72
2018-05-31T06:58:25.583Z,21.82
2018-05-31T06:59:35.010Z,21.75
2018-05-31T07:00:43.883Z,21.84
2018-05-31T07:01:52.741Z,21.91
2018-05-31T07:03:02.032Z,21.9
2018-05-31T07:04:10.895Z,21.88
2018-05-31T07:05:19.763Z,22
2018-05-31T07:06:28.628Z,22.05
2018-05-31T07:07:37.490Z,22.1
2018-05-31T07:08:46.511Z,22.18
2018-05-31T07:09:55.372Z,22.15
2018-05-31T07:11:04.240Z,22.22
2018-05-31T07:12:13.114Z,22.28
2018-05-31T07:13:22.254Z,22.24
2018-05-31T07:14:31.454Z,22.37
2018-05-31T07:15:40.322Z,22.35
2018-05-31T07:16:49.189Z,22.42
2018-05-31T07:17:58.057Z,22.49
2018-05-31T07:19:07.208Z,22.43
2018-05-31T07:20:16.125Z,22.49
2018-05-31T07:21:24.983Z,22.46
2018-05-31T07:22:34.125Z,22.51
2018-05-31T07:23:42.996Z,22.65
2018-05-31T07:24:52.134Z,22.72
2018-05-31T07:26:01.329Z,22.7
2018-05-31T07:27:10.248Z,22.72
2018-05-31T07:28:19.342Z,22.77
2018-05-31T07:29:28.209Z,22.77
2018-05-31T07:30:37.075Z,22.79
2018-05-31T07:31:45.987Z,22.86
2018-05-31T07:32:55.132Z,22.85
2018-05-31T07:34:03.997Z,22.86
2018-05-31T07:35:12.862Z,22.88
2018-05-31T07:36:22.038Z,22.97
2018-05-31T07:37:31.158Z,23
2018-05-31T07:38:40.065Z,23
2018-05-31T07:39:49.550Z,23.05
2018-05-31T07:40:58.417Z,23.13
2018-05-31T07:42:07.282Z,23.25
2018-05-31T07:43:16.254Z,23.27
2018-05-31T07:44:25.147Z,23.19
2018-05-31T07:45:34.367Z,23.22
2018-05-31T07:46:43.232Z,23.27
2018-05-31T07:47:52.097Z,23.22
2018-05-31T07:49:01.070Z,23.38
2018-05-31T07:50:09.931Z,23.43
2018-05-31T07:51:18.818Z,23.55
2018-05-31T07:52:27.948Z,23.6
2018-05-31T07:53:36.817Z,23.57
2018-05-31T07:54:45.833Z,23.6
2018-05-31T07:55:54.705Z,23.6
2018-05-31T07:57:03.845Z,23.61
2018-05-31T07:58:12.727Z,23.63
2018-05-31T07:59:21.574Z,23.72
2018-05-31T08:00:30.440Z,23.76
2018-05-31T08:01:39.308Z,23.87
2018-05-31T08:02:48.175Z,23.94
2018-05-31T08:03:57.044Z,23.98
2018-05-31T08:05:05.916Z,23.97
2018-05-31T08:06:14.929Z,23.91
2018-05-31T08:07:23.797Z,23.98
2018-05-31T08:08:32.666Z,24.03
2018-05-31T08:09:41.813Z,24.1
2018-05-31T08:10:50.677Z,24.18
2018-05-31T08:12:00.277Z,24.18
2018-05-31T08:13:09.153Z,24.15
2018-05-31T08:14:18.302Z,24.05
2018-05-31T08:15:27.444Z,24.18
2018-05-31T08:16:36.315Z,24.18
2018-05-31T08:17:45.231Z,24.22
2018-05-31T08:18:54.105Z,24.21
2018-05-31T08:20:02.970Z,24.16
2018-05-31T08:21:11.843Z,24.2
2018-05-31T08:22:20.708Z,24.24
2018-05-31T08:23:29.928Z,24.25
2018-05-31T08:24:38.795Z,24.2
2018-05-31T08:25:47.941Z,24.34
2018-05-31T08:26:57.083Z,24.45
2018-05-31T08:28:05.950Z,24.46
2018-05-31T08:29:15.016Z,24.55
2018-05-31T08:30:24.160Z,24.53
2018-05-31T08:31:33.108Z,24.57
2018-05-31T08:32:41.894Z,24.76
2018-05-31T08:33:50.766Z,24.77
2018-05-31T08:35:00.287Z,24.73
2018-05-31T08:36:09.156Z,24.8
2018-05-31T08:37:18.023Z,24.76
2018-05-31T08:38:26.889Z,24.83
2018-05-31T08:39:35.755Z,24.84
2018-05-31T08:40:44.679Z,24.71
2018-05-31T08:41:53.541Z,24.81
2018-05-31T08:43:02.409Z,24.76
2018-05-31T08:44:11.579Z,24.78
2018-05-31T08:45:20.421Z,25.05
2018-05-31T08:46:29.337Z,25.2
2018-05-31T08:47:38.204Z,25.17
2018-05-31T08:48:47.360Z,25.23
2018-05-31T08:49:56.794Z,25.21
2018-05-31T08:51:05.743Z,25.05
2018-05-31T08:52:14.579Z,24.98
2018-05-31T08:53:23.447Z,25.1
2018-05-31T08:54:32.314Z,25.21
2018-05-31T08:55:41.482Z,25.36
2018-05-31T08:56:50.349Z,25.28
2018-05-31T08:57:59.644Z,25.42
2018-05-31T08:59:08.517Z,25.43
2018-05-31T09:00:17.957Z,25.51
2018-05-31T09:01:27.103Z,25.45
2018-05-31T09:02:35.968Z,25.52
2018-05-31T09:03:44.988Z,25.51
2018-05-31T09:04:54.139Z,25.58
2018-05-31T09:06:03.008Z,25.5
2018-05-31T09:07:11.875Z,25.52
2018-05-31T09:08:20.743Z,25.64
2018-05-31T09:09:29.806Z,25.69
2018-05-31T09:10:38.626Z,25.75
2018-05-31T09:11:47.493Z,25.8
2018-05-31T09:12:56.636Z,25.8
2018-05-31T09:14:05.514Z,25.8
2018-05-31T09:15:14.683Z,25.79
2018-05-31T09:16:24.207Z,25.97
2018-05-31T09:17:33.077Z,26.02
2018-05-31T09:18:42.221Z,26.18
2018-05-31T09:19:51.091Z,26.32
2018-05-31T09:21:00.106Z,26.33
2018-05-31T09:22:08.977Z,26.26
2018-05-31T09:23:17.847Z,26.25
2018-05-31T09:24:26.717Z,26.25
2018-05-31T09:25:35.586Z,26.4
2018-05-31T09:26:44.555Z,26.51
2018-05-31T09:27:53.421Z,26.5
2018-05-31T09:29:02.290Z,26.54
2018-05-31T09:30:11.439Z,26.54
2018-05-31T09:31:20.308Z,26.48
2018-05-31T09:32:29.603Z,26.62
2018-05-31T09:33:38.767Z,26.67
2018-05-31T09:34:47.632Z,26.84
2018-05-31T09:35:56.779Z,26.72
2018-05-31T09:37:05.647Z,26.88
2018-05-31T09:38:14.616Z,26.76
2018-05-31T09:39:23.485Z,26.77
2018-05-31T09:40:32.354Z,26.87
2018-05-31T09:41:41.224Z,26.94
2018-05-31T09:42:50.380Z,26.94
2018-05-31T09:43:59.402Z,26.91
2018-05-31T09:45:08.270Z,26.92
2018-05-31T09:46:17.144Z,26.87
2018-05-31T09:47:26.300Z,26.97
2018-05-31T09:48:35.442Z,27.18
2018-05-31T09:49:44.613Z,27.19
2018-05-31T09:50:53.482Z,27.21
2018-05-31T09:52:02.349Z,27.27
2018-05-31T09:53:11.218Z,27.22
2018-05-31T09:54:20.365Z,27.27
2018-05-31T09:55:29.333Z,27.24
2018-05-31T09:56:38.204Z,27.32
2018-05-31T09:57:47.076Z,27.43
2018-05-31T09:58:55.941Z,27.49
2018-05-31T10:00:04.809Z,27.55
2018-05-31T10:01:13.684Z,27.57
2018-05-31T10:02:22.548Z,27.6
2018-05-31T10:03:31.696Z,27.67
2018-05-31T10:04:40.842Z,27.55
2018-05-31T10:05:49.711Z,27.59
2018-05-31T10:06:58.682Z,27.75
2018-05-31T10:08:07.549Z,27.79
2018-05-31T10:09:16.415Z,27.78
2018-05-31T10:10:25.284Z,27.87
2018-05-31T10:11:34.153Z,27.93
2018-05-31T10:12:43.072Z,27.88
2018-05-31T10:13:52.220Z,27.87
2018-05-31T10:15:01.369Z,28.03
2018-05-31T10:16:10.515Z,28.02
2018-05-31T10:17:19.386Z,28.02
2018-05-31T10:18:28.637Z,28.03
2018-05-31T10:19:37.508Z,28.19
2018-05-31T10:20:46.379Z,28.24
2018-05-31T10:21:55.245Z,28.27
2018-05-31T10:23:04.113Z,28.48
2018-05-31T10:24:13.412Z,28.41
2018-05-31T10:25:22.280Z,28.43
2018-05-31T10:26:31.149Z,28.54
2018-05-31T10:27:40.019Z,28.62
2018-05-31T10:28:48.885Z,28.62
2018-05-31T10:29:57.853Z,28.67
2018-05-31T10:31:07.003Z,28.67
2018-05-31T10:32:15.871Z,28.78
2018-05-31T10:33:25.030Z,28.73
2018-05-31T10:34:33.898Z,28.76
2018-05-31T10:35:43.117Z,28.73
2018-05-31T10:36:51.985Z,28.77
2018-05-31T10:38:00.861Z,28.74
2018-05-31T10:39:10.008Z,28.8
2018-05-31T10:40:18.880Z,28.77
2018-05-31T10:41:27.749Z,28.77
2018-05-31T10:42:37.184Z,28.74
2018-05-31T10:43:46.055Z,28.81
2018-05-31T10:44:54.925Z,28.95
2018-05-31T10:46:03.794Z,28.86
2018-05-31T10:47:12.764Z,28.9
2018-05-31T10:48:21.629Z,29.15
2018-05-31T10:49:30.499Z,29.11
2018-05-31T10:50:39.651Z,29.19
2018-05-31T10:51:48.800Z,29.19
2018-05-31T10:52:57.947Z,29.3
2018-05-31T10:54:06.819Z,29.28
2018-05-31T10:55:15.970Z,29.34
2018-05-31T10:56:24.845Z,29.34
2018-05-31T10:57:33.715Z,29.45
2018-05-31T10:58:42.862Z,29.39
2018-05-31T10:59:51.733Z,29.52
2018-05-31T11:01:00.607Z,29.67
2018-05-31T11:02:09.764Z,29.82
2018-05-31T11:03:18.911Z,29.79
2018-05-31T11:04:27.780Z,29.73
2018-05-31T11:05:36.648Z,29.71
2018-05-31T11:06:45.802Z,29.78
2018-05-31T11:07:54.669Z,29.87
2018-05-31T11:09:03.536Z,29.85
2018-05-31T11:10:12.452Z,29.94
2018-05-31T11:11:21.564Z,29.98
2018-05-31T11:12:30.433Z,29.95
2018-05-31T11:13:39.305Z,29.73
2018-05-31T11:14:48.177Z,29.87
2018-05-31T11:15:57.046Z,29.94
2018-05-31T11:17:05.918Z,29.97
2018-05-31T11:18:14.940Z,29.92
2018-05-31T11:19:23.812Z,30.1
2018-05-31T11:20:32.686Z,30.13
2018-05-31T11:21:42.206Z,30.23
2018-05-31T11:22:51.754Z,30.29
2018-05-31T11:24:00.672Z,30.34
2018-05-31T11:25:09.542Z,30.32
2018-05-31T11:26:18.697Z,30.26
2018-05-31T11:27:27.569Z,30.38
2018-05-31T11:28:36.721Z,30.6
2018-05-31T11:29:45.690Z,30.73
2018-05-31T11:30:54.564Z,30.91
2018-05-31T11:32:04.283Z,30.98
2018-05-31T11:33:13.164Z,31.02
2018-05-31T11:34:22.038Z,31.04
2018-05-31T11:35:31.161Z,31.14
2018-05-31T11:36:40.031Z,31.28
2018-05-31T11:37:48.904Z,31.39
2018-05-31T11:38:57.781Z,31.44
2018-05-31T11:40:07.204Z,31.32
2018-05-31T11:41:16.426Z,31.47
2018-05-31T11:42:25.301Z,31.44
2018-05-31T11:43:34.173Z,31.48
2018-05-31T11:44:43.389Z,31.7
2018-05-31T11:45:52.261Z,31.69
2018-05-31T11:47:01.284Z,31.78
2018-05-31T11:48:10.715Z,31.73
2018-05-31T11:49:19.863Z,31.91
2018-05-31T11:50:29.027Z,31.88
2018-05-31T11:51:37.907Z,31.99
2018-05-31T11:52:46.924Z,31.99
2018-05-31T11:53:55.796Z,32.01
2018-05-31T11:55:04.672Z,32.22
2018-05-31T11:56:13.544Z,31.99
2018-05-31T11:57:22.422Z,31.65
2018-05-31T11:58:31.339Z,31.91
2018-05-31T11:59:40.211Z,32.03
2018-05-31T12:00:49.094Z,32.18
2018-05-31T12:01:58.242Z,32.25
2018-05-31T12:03:07.124Z,32.21
2018-05-31T12:04:16.461Z,32.23
2018-05-31T12:05:25.339Z,32.32
2018-05-31T12:06:34.324Z,32.44
2018-05-31T12:07:43.755Z,32.57
2018-05-31T12:08:52.905Z,32.57
2018-05-31T12:10:02.135Z,32.55
2018-05-31T12:11:11.062Z,32.67
2018-05-31T12:12:19.935Z,32.51
2018-05-31T12:13:28.814Z,32.67
2018-05-31T12:14:37.695Z,32.79
2018-05-31T12:15:47.026Z,32.85
2018-05-31T12:16:55.908Z,32.74
2018-05-31T12:18:04.795Z,32.69
2018-05-31T12:19:13.684Z,32.56
2018-05-31T12:20:22.563Z,32.55
2018-05-31T12:21:31.794Z,32.47
2018-05-31T12:22:40.675Z,32.52
2018-05-31T12:23:49.551Z,32.55
2018-05-31T12:24:58.430Z,32.82
2018-05-31T12:26:07.590Z,33.03
2018-05-31T12:27:16.515Z,33.01
2018-05-31T12:28:25.692Z,33.12
2018-05-31T12:29:34.851Z,33.34
2018-05-31T12:30:43.728Z,33.56
2018-05-31T12:31:52.883Z,33.56
2018-05-31T12:33:02.146Z,33.45
2018-05-31T12:34:11.024Z,33.37
2018-05-31T12:35:20.184Z,33.41
2018-05-31T12:36:29.064Z,33.29
2018-05-31T12:37:37.951Z,33.16
2018-05-31T12:38:47.238Z,33.04
2018-05-31T12:39:56.115Z,33.07
2018-05-31T12:41:05.000Z,33.12
2018-05-31T12:42:13.870Z,33.23
2018-05-31T12:43:22.751Z,33.31
2018-05-31T12:44:31.731Z,33.41
2018-05-31T12:45:40.895Z,33.56
2018-05-31T12:46:49.771Z,33.69
2018-05-31T12:47:58.651Z,33.65
2018-05-31T12:49:07.808Z,33.63
2018-05-31T12:50:16.937Z,33.59
2018-05-31T12:51:25.825Z,33.59
2018-05-31T12:52:34.693Z,33.5
2018-05-31T12:53:43.971Z,33.35
2018-05-31T12:54:52.785Z,33.26
2018-05-31T12:56:01.714Z,33.22
2018-05-31T12:57:10.590Z,33.12
2018-05-31T12:58:19.467Z,33.11
2018-05-31T12:59:28.344Z,32.92
2018-05-31T13:00:37.220Z,32.84
2018-05-31T13:01:46.578Z,32.56
2018-05-31T13:02:55.736Z,32.44
2018-05-31T13:04:05.167Z,32.32
2018-05-31T13:05:14.042Z,32.26
2018-05-31T13:06:22.917Z,32.18
2018-05-31T13:07:32.168Z,32.04
2018-05-31T13:08:41.043Z,32.04
2018-05-31T13:09:49.919Z,32.03
2018-05-31T13:10:59.070Z,32.01
2018-05-31T13:12:08.226Z,32.23
2018-05-31T13:13:17.199Z,32.3
2018-05-31T13:14:26.076Z,32.51
2018-05-31T13:15:34.951Z,32.69
2018-05-31T13:16:43.825Z,32.85
2018-05-31T13:17:52.974Z,32.96
2018-05-31T13:19:02.279Z,32.84
2018-05-31T13:20:11.721Z,32.85
2018-05-31T13:21:20.599Z,32.79
2018-05-31T13:22:29.750Z,32.67
2018-05-31T13:23:38.625Z,32.57
2018-05-31T13:24:48.262Z,32.52
2018-05-31T13:25:57.136Z,32.48
2018-05-31T13:27:06.010Z,32.52
2018-05-31T13:28:14.883Z,32.48
2018-05-31T13:29:23.764Z,32.45
2018-05-31T13:30:32.784Z,32.5
2018-05-31T13:31:41.659Z,32.4
2018-05-31T13:32:50.807Z,32.43
2018-05-31T13:33:59.683Z,32.43
2018-05-31T13:35:08.559Z,32.43
2018-05-31T13:36:17.530Z,32.51
2018-05-31T13:37:26.405Z,32.62
2018-05-31T13:38:35.610Z,32.59
2018-05-31T13:39:44.762Z,32.57
2018-05-31T13:40:53.637Z,32.57
2018-05-31T13:42:02.668Z,32.43
2018-05-31T13:43:11.863Z,32.26
2018-05-31T13:44:20.699Z,32.15
2018-05-31T13:45:29.574Z,32.08
2018-05-31T13:46:38.450Z,32.28
2018-05-31T13:47:47.775Z,32.41
2018-05-31T13:48:56.930Z,32.52
2018-05-31T13:50:05.809Z,32.38
2018-05-31T13:51:14.684Z,32.32
2018-05-31T13:52:23.557Z,32.3
2018-05-31T13:53:32.437Z,32.29
2018-05-31T13:54:41.311Z,32.38
2018-05-31T13:55:50.186Z,32.26
2018-05-31T13:56:59.343Z,32.28
2018-05-31T13:58:08.777Z,32.59
2018-05-31T13:59:18.036Z,32.96
2018-05-31T14:00:26.912Z,33.15
2018-05-31T14:01:35.788Z,33.37
2018-05-31T14:02:44.669Z,33.56
2018-05-31T14:03:53.882Z,33.68
2018-05-31T14:05:03.133Z,33.73
2018-05-31T14:06:12.012Z,33.51
2018-05-31T14:07:20.888Z,33.29
2018-05-31T14:08:30.042Z,33.12
2018-05-31T14:09:39.321Z,33.01
2018-05-31T14:10:48.475Z,33.06
2018-05-31T14:11:57.633Z,33
2018-05-31T14:13:06.787Z,33.14
2018-05-31T14:14:15.666Z,33.15
2018-05-31T14:15:24.592Z,33.09
2018-05-31T14:16:33.469Z,33.09
2018-05-31T14:17:42.346Z,33.16
2018-05-31T14:18:51.500Z,33.39
2018-05-31T14:20:00.657Z,33.54
2018-05-31T14:21:09.587Z,33.66
2018-05-31T14:22:18.466Z,33.76
2018-05-31T14:23:27.630Z,33.98
2018-05-31T14:24:36.791Z,34.19
2018-05-31T14:25:45.945Z,34.65
2018-05-31T14:26:55.172Z,34.82
2018-05-31T14:28:04.051Z,35.1
2018-05-31T14:29:12.934Z,35.07
2018-05-31T14:30:21.818Z,35.18
2018-05-31T14:31:30.697Z,35.41
2018-05-31T14:32:39.627Z,35.62
2018-05-31T14:33:48.505Z,35.8
2018-05-31T14:34:57.389Z,35.77
2018-05-31T14:36:06.271Z,35.8
2018-05-31T14:37:15.438Z,35.85
2018-05-31T14:38:24.953Z,35.63
2018-05-31T14:39:34.107Z,35.44
2018-05-31T14:40:43.265Z,35.22
2018-05-31T14:41:52.144Z,35.21
2018-05-31T14:43:01.023Z,35.44
2018-05-31T14:44:10.059Z,35.6
2018-05-31T14:45:18.939Z,35.82
2018-05-31T14:46:27.823Z,35.87
2018-05-31T14:47:36.705Z,36.17
2018-05-31T14:48:45.866Z,36.17
2018-05-31T14:49:55.098Z,36.29
2018-05-31T14:51:03.977Z,36.39
2018-05-31T14:52:12.859Z,36.37